createdAt,value
2023-04-13T00:02:24.495Z,11.37
2023-04-13T00:04:51.694Z,11.39
2023-04-13T00:07:19.064Z,11.41
2023-04-13T00:09:47.343Z,11.44
2023-04-13T00:12:16.203Z,11.46
2023-04-13T00:14:44.010Z,11.46
2023-04-13T00:17:11.093Z,11.48
2023-04-13T00:19:37.918Z,11.51
2023-04-13T00:22:05.135Z,11.54
2023-04-13T00:24:33.611Z,11.57
2023-04-13T00:27:01.187Z,11.58
2023-04-13T00:29:27.957Z,11.56
2023-04-13T00:31:54.709Z,11.56
2023-04-13T00:34:21.541Z,11.55
2023-04-13T00:36:49.156Z,11.56
2023-04-13T00:39:16.039Z,11.55
2023-04-13T00:41:42.717Z,11.52
2023-04-13T00:44:09.458Z,11.51
2023-04-13T00:46:36.768Z,11.50
2023-04-13T00:49:03.942Z,11.49
2023-04-13T00:51:30.821Z,11.47
2023-04-13T00:53:59.453Z,11.45
2023-04-13T00:56:27.242Z,11.45
2023-04-13T00:58:56.379Z,11.43
2023-04-13T01:01:23.351Z,11.41
2023-04-13T01:03:53.414Z,11.40
2023-04-13T01:06:31.865Z,11.43
2023-04-13T01:09:10.365Z,11.44
2023-04-13T01:11:46.787Z,11.44
2023-04-13T01:14:24.320Z,11.44
2023-04-13T01:16:57.297Z,11.44
2023-04-13T01:20:01.290Z,11.45
2023-04-13T01:22:30.856Z,11.44
2023-04-13T01:25:31.567Z,11.45
2023-04-13T01:28:12.307Z,11.42
2023-04-13T01:30:40.533Z,11.44
2023-04-13T01:33:09.659Z,11.48
2023-04-13T01:35:38.143Z,11.50
2023-04-13T01:38:06.846Z,11.53
2023-04-13T01:40:40.452Z,11.55
2023-04-13T01:43:08.513Z,11.56
2023-04-13T01:45:45.909Z,11.59
2023-04-13T01:48:24.981Z,11.60
2023-04-13T01:51:07.397Z,11.61
2023-04-13T01:53:42.394Z,11.60
2023-04-13T01:56:09.605Z,11.61
2023-04-13T01:58:37.768Z,11.63
2023-04-13T02:01:07.728Z,11.66
2023-04-13T02:06:03.217Z,11.64
2023-04-13T02:08:33.634Z,11.64
2023-04-13T02:11:02.031Z,11.62
2023-04-13T02:13:29.569Z,11.60
2023-04-13T02:15:57.610Z,11.59
2023-04-13T02:18:24.724Z,11.57
2023-04-13T02:21:11.170Z,11.56
2023-04-13T02:23:40.541Z,11.52
2023-04-13T02:26:16.245Z,11.51
2023-04-13T02:28:43.283Z,11.49
2023-04-13T02:31:10.092Z,11.47
2023-04-13T02:33:37.640Z,11.47
2023-04-13T02:36:05.260Z,11.45
2023-04-13T02:38:32.268Z,11.45
2023-04-13T02:41:01.160Z,11.44
2023-04-13T02:43:28.901Z,11.45
2023-04-13T02:45:56.647Z,11.44
2023-04-13T02:48:23.599Z,11.43
2023-04-13T02:50:51.074Z,11.44
2023-04-13T02:53:17.934Z,11.43
2023-04-13T02:55:44.657Z,11.42
2023-04-13T02:58:12.307Z,11.40
2023-04-13T03:00:39.730Z,11.39
2023-04-13T03:03:06.854Z,11.40
2023-04-13T03:05:33.953Z,11.41
2023-04-13T03:08:00.897Z,11.41
2023-04-13T03:10:27.705Z,11.43
2023-04-13T03:12:54.775Z,11.40
2023-04-13T03:15:21.571Z,11.40
2023-04-13T03:17:48.438Z,11.41
2023-04-13T03:20:16.807Z,11.44
2023-04-13T03:22:45.030Z,11.41
2023-04-13T03:25:12.500Z,11.41
2023-04-13T03:27:39.513Z,11.43
2023-04-13T03:30:07.566Z,11.45
2023-04-13T03:32:34.494Z,11.46
2023-04-13T03:35:01.271Z,11.47
2023-04-13T03:37:30.238Z,11.45
2023-04-13T03:39:58.481Z,11.46
2023-04-13T03:42:25.231Z,11.44
2023-04-13T03:44:52.130Z,11.47
2023-04-13T03:47:19.231Z,11.49
2023-04-13T03:49:45.995Z,11.51
2023-04-13T03:52:12.701Z,11.50
2023-04-13T03:54:40.209Z,11.51
2023-04-13T03:57:07.311Z,11.50
2023-04-13T03:59:34.500Z,11.49
2023-04-13T04:02:02.787Z,11.46
2023-04-13T04:04:30.043Z,11.43
2023-04-13T04:06:58.179Z,11.39
2023-04-13T04:09:25.771Z,11.36
2023-04-13T04:14:48.137Z,11.29
2023-04-13T04:17:15.453Z,11.25
2023-04-13T04:19:42.633Z,11.25
2023-04-13T04:22:09.898Z,11.21
2023-04-13T04:24:36.610Z,11.21
2023-04-13T04:27:05.767Z,11.20
2023-04-13T04:29:35.421Z,11.21
2023-04-13T04:32:04.186Z,11.18
2023-04-13T04:34:31.702Z,11.18
2023-04-13T04:37:03.116Z,11.18
2023-04-13T04:39:32.979Z,11.16
2023-04-13T04:42:04.171Z,11.13
2023-04-13T04:44:31.373Z,11.17
2023-04-13T04:47:02.788Z,11.17
2023-04-13T04:49:30.140Z,11.16
2023-04-13T04:51:58.078Z,11.16
2023-04-13T04:54:25.566Z,11.16
2023-04-13T04:56:52.356Z,11.17
2023-04-13T04:59:22.321Z,11.16
2023-04-13T05:01:49.842Z,11.15
2023-04-13T05:04:17.079Z,11.14
2023-04-13T05:06:44.473Z,11.12
2023-04-13T05:09:11.653Z,11.11
2023-04-13T05:11:39.016Z,11.10
2023-04-13T05:14:05.935Z,11.09
2023-04-13T05:16:34.434Z,11.07
2023-04-13T05:19:01.926Z,11.11
2023-04-13T05:21:28.906Z,11.12
2023-04-13T05:23:56.598Z,11.11
2023-04-13T05:26:25.266Z,11.12
2023-04-13T05:28:52.343Z,11.13
2023-04-13T05:31:19.086Z,11.14
2023-04-13T05:33:46.519Z,11.15
2023-04-13T05:36:13.491Z,11.18
2023-04-13T05:38:40.204Z,11.19
2023-04-13T05:41:07.354Z,11.22
2023-04-13T05:43:35.040Z,11.27
2023-04-13T05:46:02.263Z,11.30
2023-04-13T05:48:30.478Z,11.33
2023-04-13T05:50:59.147Z,11.34
2023-04-13T05:53:26.082Z,11.38
2023-04-13T05:55:52.811Z,11.41
2023-04-13T05:58:20.171Z,11.43
2023-04-13T06:00:46.885Z,11.46
2023-04-13T06:03:16.102Z,11.48
2023-04-13T06:05:43.468Z,11.52
2023-04-13T06:08:10.525Z,11.58
2023-04-13T06:10:37.464Z,11.62
2023-04-13T06:13:04.240Z,11.67
2023-04-13T06:15:31.998Z,11.74
2023-04-13T06:17:58.790Z,11.77
2023-04-13T06:20:25.518Z,11.84
2023-04-13T06:22:52.269Z,11.91
2023-04-13T06:25:19.501Z,12.02
2023-04-13T06:27:48.828Z,12.11
2023-04-13T06:30:15.884Z,12.21
2023-04-13T06:32:42.845Z,12.34
2023-04-13T06:35:10.825Z,12.48
2023-04-13T06:37:38.959Z,12.65
2023-04-13T06:40:09.886Z,12.84
2023-04-13T06:42:36.785Z,13.07
2023-04-13T06:45:03.824Z,13.34
2023-04-13T06:47:30.681Z,13.65
2023-04-13T06:49:57.485Z,13.95
2023-04-13T06:52:24.268Z,14.21
2023-04-13T06:54:51.569Z,14.45
2023-04-13T06:57:18.779Z,14.65
2023-04-13T06:59:45.502Z,14.81
2023-04-13T07:02:12.254Z,14.85
2023-04-13T07:04:39.498Z,14.86
2023-04-13T07:07:06.354Z,14.86
2023-04-13T07:09:33.061Z,14.82
2023-04-13T07:12:07.234Z,14.76
2023-04-13T07:14:39.554Z,14.70
2023-04-13T07:17:06.731Z,14.62
2023-04-13T07:19:35.657Z,14.55
2023-04-13T07:22:04.181Z,14.47
2023-04-13T07:24:34.073Z,14.42
2023-04-13T07:27:01.251Z,14.39
2023-04-13T07:29:28.160Z,14.37
2023-04-13T07:32:01.301Z,14.39
2023-04-13T07:34:29.040Z,14.41
2023-04-13T07:36:55.800Z,14.44
2023-04-13T07:39:22.849Z,14.46
2023-04-13T07:41:49.758Z,14.51
2023-04-13T07:44:16.528Z,14.60
2023-04-13T07:46:43.507Z,14.62
2023-04-13T07:49:10.281Z,14.68
2023-04-13T07:51:36.993Z,14.68
2023-04-13T07:54:03.830Z,14.70
2023-04-13T07:56:31.170Z,14.72
2023-04-13T07:58:58.150Z,14.69
2023-04-13T08:01:25.653Z,14.67
2023-04-13T08:03:52.439Z,14.68
2023-04-13T08:06:23.208Z,14.68
2023-04-13T08:08:50.068Z,14.68
2023-04-13T08:11:16.852Z,14.69
2023-04-13T08:13:43.659Z,14.71
2023-04-13T08:16:11.207Z,14.71
2023-04-13T08:18:38.376Z,14.72
2023-04-13T08:21:11.248Z,14.73
2023-04-13T08:23:42.879Z,14.76
2023-04-13T08:26:20.966Z,14.77
2023-04-13T08:28:49.660Z,14.78
2023-04-13T08:31:16.630Z,14.82
2023-04-13T08:33:43.907Z,14.90
2023-04-13T08:36:10.732Z,15.07
2023-04-13T08:38:37.495Z,15.57
2023-04-13T08:41:04.494Z,16.11
2023-04-13T08:43:35.497Z,16.68
2023-04-13T08:46:05.743Z,17.16
2023-04-13T08:48:53.484Z,17.45
2023-04-13T08:51:22.783Z,17.61
2023-04-13T08:53:56.158Z,17.68
2023-04-13T08:56:30.920Z,17.67
2023-04-13T08:59:07.480Z,17.54
2023-04-13T09:01:40.410Z,17.42
2023-04-13T09:04:10.703Z,17.32
2023-04-13T09:06:41.465Z,17.20
2023-04-13T09:09:14.269Z,17.05
2023-04-13T09:11:42.975Z,16.94
2023-04-13T09:14:10.424Z,16.87
2023-04-13T09:16:42.305Z,16.82
2023-04-13T09:19:10.195Z,16.73
2023-04-13T09:21:42.340Z,16.67
2023-04-13T09:24:09.661Z,16.59
2023-04-13T09:26:45.506Z,16.56
2023-04-13T09:29:21.839Z,16.61
2023-04-13T09:31:48.824Z,16.70
2023-04-13T09:34:27.960Z,16.87
2023-04-13T09:36:56.687Z,17.05
2023-04-13T09:39:29.000Z,17.20
2023-04-13T09:41:57.954Z,17.29
2023-04-13T09:44:25.618Z,17.38
2023-04-13T09:47:06.889Z,17.45
2023-04-13T09:49:41.905Z,17.48
2023-04-13T09:52:23.441Z,17.48
2023-04-13T09:54:55.712Z,17.49
2023-04-13T09:57:31.685Z,17.59
2023-04-13T10:00:01.784Z,17.80
2023-04-13T10:02:29.195Z,18.14
2023-04-13T10:04:56.531Z,18.67
2023-04-13T10:07:26.873Z,19.29
2023-04-13T10:09:54.397Z,19.76
2023-04-13T10:12:24.652Z,20.06
2023-04-13T10:14:58.955Z,20.25
2023-04-13T10:17:39.615Z,20.36
2023-04-13T10:20:10.475Z,20.39
2023-04-13T10:22:40.776Z,20.38
2023-04-13T10:25:18.679Z,20.28
2023-04-13T10:28:01.068Z,20.15
2023-04-13T10:30:28.347Z,19.96
2023-04-13T10:33:09.747Z,19.75
2023-04-13T10:35:37.467Z,19.50
2023-04-13T10:38:04.870Z,19.28
2023-04-13T10:40:46.098Z,19.07
2023-04-13T10:43:13.105Z,18.91
2023-04-13T10:45:39.885Z,18.81
2023-04-13T10:48:07.537Z,18.73
2023-04-13T10:50:34.614Z,18.63
2023-04-13T10:53:05.047Z,18.59
2023-04-13T10:55:34.234Z,18.62
2023-04-13T10:58:13.066Z,18.81
2023-04-13T11:00:46.418Z,19.13
2023-04-13T11:03:16.961Z,19.51
2023-04-13T11:05:47.097Z,19.89
2023-04-13T11:08:19.322Z,20.32
2023-04-13T11:10:54.883Z,20.71
2023-04-13T11:13:25.228Z,21.02
2023-04-13T11:16:00.255Z,21.16
2023-04-13T11:18:27.835Z,21.17
2023-04-13T11:20:55.238Z,21.09
2023-04-13T11:23:24.359Z,20.95
2023-04-13T11:26:01.277Z,20.77
2023-04-13T11:28:47.009Z,20.59
2023-04-13T11:31:13.965Z,20.70
2023-04-13T11:33:41.049Z,21.06
2023-04-13T11:36:09.581Z,21.52
2023-04-13T11:38:41.542Z,21.99
2023-04-13T11:41:16.562Z,22.29
2023-04-13T11:43:48.415Z,22.44
2023-04-13T11:46:23.123Z,22.72
2023-04-13T11:48:50.420Z,23.05
2023-04-13T11:51:17.309Z,23.40
2023-04-13T11:53:45.413Z,23.71
2023-04-13T11:56:14.385Z,23.96
2023-04-13T11:58:42.652Z,24.13
2023-04-13T12:01:14.329Z,24.25
2023-04-13T12:06:17.422Z,24.33
2023-04-13T12:08:46.349Z,24.28
2023-04-13T12:11:40.506Z,24.24
2023-04-13T12:14:11.532Z,24.21
2023-04-13T12:19:13.095Z,24.16
2023-04-13T12:21:53.444Z,24.13
2023-04-13T12:24:20.461Z,24.14
2023-04-13T12:29:16.938Z,24.35
2023-04-13T12:31:45.433Z,24.45
2023-04-13T12:34:12.233Z,24.53
2023-04-13T12:36:38.900Z,24.65
2023-04-13T12:39:06.729Z,24.74
2023-04-13T12:41:33.724Z,24.74
2023-04-13T12:44:01.286Z,24.73
2023-04-13T12:46:28.132Z,24.64
2023-04-13T12:48:54.925Z,24.55
2023-04-13T12:51:21.771Z,24.50
2023-04-13T12:53:48.497Z,24.45
2023-04-13T12:56:15.912Z,24.36
2023-04-13T12:58:42.878Z,24.27
2023-04-13T13:01:10.126Z,24.21
2023-04-13T13:03:37.256Z,24.18
2023-04-13T13:06:08.080Z,24.19
2023-04-13T13:08:37.557Z,24.18
2023-04-13T13:11:08.174Z,24.19
2023-04-13T13:13:34.899Z,24.22
2023-04-13T13:16:01.673Z,24.26
2023-04-13T13:18:38.409Z,24.29
2023-04-13T13:21:13.723Z,24.30
2023-04-13T13:23:40.496Z,24.27
2023-04-13T13:26:23.308Z,24.22
2023-04-13T13:28:51.956Z,24.15
2023-04-13T13:31:19.314Z,24.05
2023-04-13T13:33:46.338Z,23.98
2023-04-13T13:36:14.066Z,23.90
2023-04-13T13:38:44.606Z,23.81
2023-04-13T13:41:11.399Z,23.72
2023-04-13T13:43:38.901Z,23.70
2023-04-13T13:46:06.563Z,23.65
2023-04-13T13:48:33.359Z,23.63
2023-04-13T13:51:00.300Z,23.61
2023-04-13T13:53:27.178Z,23.58
2023-04-13T13:55:54.241Z,23.51
2023-04-13T13:58:20.981Z,23.41
2023-04-13T14:00:47.756Z,23.32
2023-04-13T14:03:16.454Z,23.26
2023-04-13T14:05:43.406Z,23.19
2023-04-13T14:08:10.540Z,23.18
2023-04-13T14:10:37.427Z,23.14
2023-04-13T14:13:04.225Z,23.12
2023-04-13T14:15:31.353Z,23.10
2023-04-13T14:18:09.877Z,23.07
2023-04-13T14:20:39.578Z,23.02
2023-04-13T14:23:07.394Z,22.98
2023-04-13T14:25:34.225Z,22.93
2023-04-13T14:28:01.692Z,22.89
2023-04-13T14:30:28.649Z,22.83
2023-04-13T14:32:56.133Z,22.80
2023-04-13T14:35:23.106Z,22.77
2023-04-13T14:37:49.852Z,22.74
2023-04-13T14:40:20.775Z,22.64
2023-04-13T14:42:49.884Z,22.56
2023-04-13T14:45:16.758Z,22.50
2023-04-13T14:47:43.533Z,22.46
2023-04-13T14:50:11.567Z,22.39
2023-04-13T14:52:38.420Z,22.36
2023-04-13T14:55:05.707Z,22.31
2023-04-13T14:57:33.098Z,22.29
2023-04-13T14:59:59.880Z,22.29
2023-04-13T15:02:28.523Z,22.31
2023-04-13T15:04:55.931Z,22.30
2023-04-13T15:07:29.788Z,22.28
2023-04-13T15:09:58.032Z,22.26
2023-04-13T15:12:24.986Z,22.24
2023-04-13T15:14:51.721Z,22.28
2023-04-13T15:17:18.426Z,22.30
2023-04-13T15:19:45.223Z,22.31
2023-04-13T15:22:11.913Z,22.32
2023-04-13T15:24:38.666Z,22.30
2023-04-13T15:27:05.581Z,22.27
2023-04-13T15:29:32.331Z,22.25
2023-04-13T15:32:00.127Z,22.22
2023-04-13T15:34:27.911Z,22.19
2023-04-13T15:36:56.868Z,22.19
2023-04-13T15:39:23.569Z,22.17
2023-04-13T15:41:52.467Z,22.15
2023-04-13T15:44:19.191Z,22.17
2023-04-13T15:46:47.849Z,22.17
2023-04-13T15:49:14.708Z,22.17
2023-04-13T15:51:41.451Z,22.18
2023-04-13T15:54:08.184Z,22.18
2023-04-13T15:56:35.407Z,22.12
2023-04-13T15:59:02.448Z,22.06
2023-04-13T16:01:48.477Z,21.96
2023-04-13T16:04:16.237Z,21.87
2023-04-13T16:06:43.109Z,21.77
2023-04-13T16:09:09.962Z,21.69
2023-04-13T16:11:40.290Z,21.57
2023-04-13T16:14:07.556Z,21.46
2023-04-13T16:16:44.055Z,21.37
2023-04-13T16:19:12.204Z,21.23
2023-04-13T16:21:43.247Z,21.11
2023-04-13T16:24:10.576Z,21.02
2023-04-13T16:26:38.142Z,20.96
2023-04-13T16:29:05.473Z,20.86
2023-04-13T16:31:32.331Z,20.77
2023-04-13T16:33:59.165Z,20.66
2023-04-13T16:36:27.218Z,20.58
2023-04-13T16:38:54.250Z,20.50
2023-04-13T16:41:21.008Z,20.44
2023-04-13T16:43:47.731Z,20.39
2023-04-13T16:46:14.776Z,20.32
2023-04-13T16:48:41.508Z,20.25
2023-04-13T16:51:08.241Z,20.17
2023-04-13T16:53:34.951Z,20.13
2023-04-13T16:56:01.768Z,20.06
2023-04-13T16:58:28.555Z,20.04
2023-04-13T17:00:55.356Z,20.00
2023-04-13T17:03:22.319Z,19.99
2023-04-13T17:05:49.298Z,19.95
2023-04-13T17:08:17.049Z,19.90
2023-04-13T17:10:43.938Z,19.83
2023-04-13T17:13:10.627Z,19.76
2023-04-13T17:15:37.370Z,19.65
2023-04-13T17:18:04.881Z,19.53
2023-04-13T17:20:31.778Z,19.40
2023-04-13T17:22:58.489Z,19.29
2023-04-13T17:25:25.212Z,19.17
2023-04-13T17:27:53.360Z,19.06
2023-04-13T17:30:20.895Z,18.93
2023-04-13T17:32:47.689Z,18.79
2023-04-13T17:35:16.155Z,18.67
2023-04-13T17:37:42.884Z,18.57
2023-04-13T17:40:10.600Z,18.45
2023-04-13T17:42:37.324Z,18.33
2023-04-13T17:45:04.876Z,18.23
2023-04-13T17:47:31.628Z,18.11
2023-04-13T17:49:58.558Z,18.01
2023-04-13T17:52:25.319Z,17.91
2023-04-13T17:54:52.069Z,17.81
2023-04-13T17:57:18.795Z,17.70
2023-04-13T17:59:47.071Z,17.59
2023-04-13T18:02:13.909Z,17.46
2023-04-13T18:04:40.790Z,17.36
2023-04-13T18:07:07.770Z,17.24
2023-04-13T18:09:34.545Z,17.15
2023-04-13T18:12:01.291Z,17.03
2023-04-13T18:14:27.998Z,16.93
2023-04-13T18:16:55.858Z,16.84
2023-04-13T18:19:22.566Z,16.74
2023-04-13T18:21:49.429Z,16.66
2023-04-13T18:24:16.347Z,16.59
2023-04-13T18:26:43.067Z,16.51
2023-04-13T18:29:09.841Z,16.44
2023-04-13T18:31:36.571Z,16.36
2023-04-13T18:34:06.516Z,16.28
2023-04-13T18:36:33.488Z,16.20
2023-04-13T18:39:01.643Z,16.12
2023-04-13T18:41:28.437Z,16.06
2023-04-13T18:43:55.227Z,15.99
2023-04-13T18:46:22.108Z,15.90
2023-04-13T18:48:48.849Z,15.84
2023-04-13T18:51:15.539Z,15.76
2023-04-13T18:53:42.348Z,15.69
2023-04-13T18:56:09.205Z,15.63
2023-04-13T18:58:36.216Z,15.58
2023-04-13T19:01:02.965Z,15.54
2023-04-13T19:03:29.833Z,15.47
2023-04-13T19:05:56.668Z,15.42
2023-04-13T19:08:23.432Z,15.34
2023-04-13T19:10:50.338Z,15.27
2023-04-13T19:13:17.165Z,15.18
2023-04-13T19:15:43.962Z,15.08
2023-04-13T19:18:11.294Z,14.98
2023-04-13T19:20:38.212Z,14.88
2023-04-13T19:23:04.994Z,14.82
2023-04-13T19:25:31.723Z,14.72
2023-04-13T19:27:58.752Z,14.66
2023-04-13T19:30:25.774Z,14.58
2023-04-13T19:32:54.247Z,14.53
2023-04-13T19:35:24.217Z,14.50
2023-04-13T19:37:50.959Z,14.46
2023-04-13T19:40:17.910Z,14.44
2023-04-13T19:42:46.332Z,14.41
2023-04-13T19:45:14.684Z,14.37
2023-04-13T19:47:42.464Z,14.36
2023-04-13T19:50:13.108Z,14.30
2023-04-13T19:52:41.618Z,14.24
2023-04-13T19:55:10.436Z,14.18
2023-04-13T19:57:41.744Z,14.11
2023-04-13T20:00:17.292Z,14.04
2023-04-13T20:02:46.908Z,13.97
2023-04-13T20:05:15.490Z,13.91
2023-04-13T20:07:42.721Z,13.87
2023-04-13T20:10:12.017Z,13.82
2023-04-13T20:12:39.646Z,13.76
2023-04-13T20:15:07.680Z,13.73
2023-04-13T20:17:34.453Z,13.69
2023-04-13T20:20:01.263Z,13.64
2023-04-13T20:22:28.108Z,13.57
2023-04-13T20:24:55.499Z,13.51
2023-04-13T20:27:22.848Z,13.44
2023-04-13T20:29:51.057Z,13.38
2023-04-13T20:32:17.893Z,13.31
2023-04-13T20:34:45.100Z,13.27
2023-04-13T20:37:14.164Z,13.20
2023-04-13T20:39:50.508Z,13.15
2023-04-13T20:42:19.814Z,13.09
2023-04-13T20:44:49.177Z,13.03
2023-04-13T20:47:16.669Z,12.96
2023-04-13T20:49:46.815Z,12.90
2023-04-13T20:52:14.046Z,12.85
2023-04-13T20:54:41.468Z,12.78
2023-04-13T20:57:09.277Z,12.72
2023-04-13T20:59:37.371Z,12.66
2023-04-13T21:02:05.366Z,12.60
2023-04-13T21:04:32.211Z,12.55
2023-04-13T21:07:02.206Z,12.51
2023-04-13T21:09:30.606Z,12.46
2023-04-13T21:11:58.001Z,12.41
2023-04-13T21:14:25.507Z,12.36
2023-04-13T21:16:52.720Z,12.32
2023-04-13T21:19:19.882Z,12.28
2023-04-13T21:21:46.887Z,12.26
2023-04-13T21:24:14.095Z,12.23
2023-04-13T21:26:40.840Z,12.20
2023-04-13T21:29:08.940Z,12.16
2023-04-13T21:31:35.777Z,12.15
2023-04-13T21:34:03.825Z,12.14
2023-04-13T21:39:00.550Z,12.11
2023-04-13T21:41:27.548Z,12.08
2023-04-13T21:43:54.338Z,12.07
2023-04-13T21:46:21.372Z,12.02
2023-04-13T21:48:48.097Z,11.99
2023-04-13T21:51:14.876Z,11.95
2023-04-13T21:53:41.644Z,11.93
2023-04-13T21:56:08.531Z,11.91
2023-04-13T21:58:41.593Z,11.89
2023-04-13T22:01:08.791Z,11.85
2023-04-13T22:03:41.673Z,11.85
2023-04-13T22:06:10.792Z,11.85
2023-04-13T22:08:38.124Z,11.82
2023-04-13T22:11:05.355Z,11.80
2023-04-13T22:13:32.588Z,11.80
2023-04-13T22:15:59.543Z,11.78
2023-04-13T22:18:27.494Z,11.78
2023-04-13T22:20:54.298Z,11.73
2023-04-13T22:23:21.047Z,11.71
2023-04-13T22:26:01.133Z,11.69
2023-04-13T22:28:29.267Z,11.66
2023-04-13T22:30:56.345Z,11.64
2023-04-13T22:33:23.279Z,11.61
2023-04-13T22:35:52.826Z,11.59
2023-04-13T22:38:19.940Z,11.55
2023-04-13T22:40:46.672Z,11.54
2023-04-13T22:43:13.419Z,11.51
2023-04-13T22:45:40.432Z,11.47
2023-04-13T22:48:07.301Z,11.43
2023-04-13T22:50:37.826Z,11.41
2023-04-13T22:53:05.533Z,11.38
2023-04-13T22:55:32.275Z,11.36
2023-04-13T22:57:58.983Z,11.33
2023-04-13T23:00:25.687Z,11.31
2023-04-13T23:02:55.821Z,11.29
2023-04-13T23:05:23.190Z,11.26
2023-04-13T23:07:50.592Z,11.25
2023-04-13T23:10:17.873Z,11.24
2023-04-13T23:12:45.694Z,11.21
2023-04-13T23:15:13.747Z,11.19
2023-04-13T23:17:40.747Z,11.15
2023-04-13T23:20:08.163Z,11.14
2023-04-13T23:22:34.977Z,11.12
2023-04-13T23:25:01.742Z,11.10
2023-04-13T23:27:28.633Z,11.06
2023-04-13T23:29:55.357Z,11.02
2023-04-13T23:32:22.102Z,10.99
2023-04-13T23:34:50.786Z,10.99
2023-04-13T23:37:17.514Z,10.96
2023-04-13T23:39:44.208Z,10.92
2023-04-13T23:42:11.446Z,10.92
2023-04-13T23:44:38.169Z,10.87
2023-04-13T23:47:06.094Z,10.84
2023-04-13T23:49:32.843Z,10.81
2023-04-13T23:51:59.526Z,10.76
2023-04-13T23:54:26.587Z,10.74
2023-04-13T23:56:53.293Z,10.71
2023-04-13T23:59:20.170Z,10.70
